sensor_id;sensor_type;location;lat;lon;timestamp;P1;durP1;ratioP1;P2;durP2;ratioP2
62696;SDS011;48761;42.680;23.312;2023-06-22T00:00:49;15.73;;;10.13;;
62696;SDS011;48761;42.680;23.312;2023-06-22T00:03:16;12.13;;;9.80;;
62696;SDS011;48761;42.680;23.312;2023-06-22T00:05:44;13.18;;;9.20;;
62696;SDS011;48761;42.680;23.312;2023-06-22T00:08:14;13.02;;;9.63;;
62696;SDS011;48761;42.680;23.312;2023-06-22T00:10:40;12.18;;;9.63;;
62696;SDS011;48761;42.680;23.312;2023-06-22T00:13:07;15.93;;;9.98;;
62696;SDS011;48761;42.680;23.312;2023-06-22T00:15:34;16.75;;;10.88;;
62696;SDS011;48761;42.680;23.312;2023-06-22T00:18:04;12.80;;;10.20;;
62696;SDS011;48761;42.680;23.312;2023-06-22T00:20:31;13.80;;;10.27;;
62696;SDS011;48761;42.680;23.312;2023-06-22T00:22:57;18.95;;;10.40;;
62696;SDS011;48761;42.680;23.312;2023-06-22T00:25:25;16.45;;;10.52;;
62696;SDS011;48761;42.680;23.312;2023-06-22T00:27:51;13.88;;;10.05;;
62696;SDS011;48761;42.680;23.312;2023-06-22T00:30:17;16.33;;;10.68;;
62696;SDS011;48761;42.680;23.312;2023-06-22T00:32:44;12.20;;;9.85;;
62696;SDS011;48761;42.680;23.312;2023-06-22T00:35:11;13.57;;;10.15;;
62696;SDS011;48761;42.680;23.312;2023-06-22T00:37:37;13.27;;;10.30;;
62696;SDS011;48761;42.680;23.312;2023-06-22T00:40:04;14.95;;;10.27;;
62696;SDS011;48761;42.680;23.312;2023-06-22T00:42:31;13.82;;;10.10;;
62696;SDS011;48761;42.680;23.312;2023-06-22T00:44:57;13.73;;;10.00;;
62696;SDS011;48761;42.680;23.312;2023-06-22T00:47:23;12.85;;;9.80;;
62696;SDS011;48761;42.680;23.312;2023-06-22T00:49:49;12.88;;;9.75;;
62696;SDS011;48761;42.680;23.312;2023-06-22T00:52:16;14.40;;;10.45;;
62696;SDS011;48761;42.680;23.312;2023-06-22T00:54:43;13.90;;;10.57;;
62696;SDS011;48761;42.680;23.312;2023-06-22T00:57:10;13.57;;;9.93;;
62696;SDS011;48761;42.680;23.312;2023-06-22T00:59:38;17.33;;;10.95;;
62696;SDS011;48761;42.680;23.312;2023-06-22T01:02:05;17.23;;;10.27;;
62696;SDS011;48761;42.680;23.312;2023-06-22T01:04:34;15.77;;;10.57;;
62696;SDS011;48761;42.680;23.312;2023-06-22T01:07:13;14.90;;;9.57;;
62696;SDS011;48761;42.680;23.312;2023-06-22T01:09:49;13.50;;;9.93;;
62696;SDS011;48761;42.680;23.312;2023-06-22T01:12:23;11.82;;;9.63;;
62696;SDS011;48761;42.680;23.312;2023-06-22T01:15:05;14.75;;;10.25;;
62696;SDS011;48761;42.680;23.312;2023-06-22T01:18:04;12.98;;;10.15;;
62696;SDS011;48761;42.680;23.312;2023-06-22T01:20:34;12.55;;;9.80;;
62696;SDS011;48761;42.680;23.312;2023-06-22T01:30:57;15.93;;;10.80;;
62696;SDS011;48761;42.680;23.312;2023-06-22T01:33:28;16.40;;;11.30;;
62696;SDS011;48761;42.680;23.312;2023-06-22T01:35:58;16.15;;;11.70;;
62696;SDS011;48761;42.680;23.312;2023-06-22T01:38:37;17.45;;;10.90;;
62696;SDS011;48761;42.680;23.312;2023-06-22T01:41:15;14.43;;;10.52;;
62696;SDS011;48761;42.680;23.312;2023-06-22T01:43:45;12.90;;;9.90;;
62696;SDS011;48761;42.680;23.312;2023-06-22T01:46:20;15.23;;;9.63;;
62696;SDS011;48761;42.680;23.312;2023-06-22T01:48:52;13.77;;;9.50;;
62696;SDS011;48761;42.680;23.312;2023-06-22T01:51:23;13.07;;;9.82;;
62696;SDS011;48761;42.680;23.312;2023-06-22T01:54:01;17.70;;;10.48;;
62696;SDS011;48761;42.680;23.312;2023-06-22T01:56:33;13.27;;;10.18;;
62696;SDS011;48761;42.680;23.312;2023-06-22T01:59:15;16.80;;;10.25;;
62696;SDS011;48761;42.680;23.312;2023-06-22T02:02:02;15.30;;;9.75;;
62696;SDS011;48761;42.680;23.312;2023-06-22T02:04:41;16.75;;;9.40;;
62696;SDS011;48761;42.680;23.312;2023-06-22T02:07:13;13.20;;;9.77;;
62696;SDS011;48761;42.680;23.312;2023-06-22T02:09:44;17.63;;;10.02;;
62696;SDS011;48761;42.680;23.312;2023-06-22T02:12:12;15.05;;;11.73;;
62696;SDS011;48761;42.680;23.312;2023-06-22T02:14:42;24.60;;;15.65;;
62696;SDS011;48761;42.680;23.312;2023-06-22T02:17:09;19.05;;;12.80;;
62696;SDS011;48761;42.680;23.312;2023-06-22T02:19:36;15.98;;;11.48;;
62696;SDS011;48761;42.680;23.312;2023-06-22T02:22:03;21.17;;;13.32;;
62696;SDS011;48761;42.680;23.312;2023-06-22T02:24:30;15.98;;;11.05;;
62696;SDS011;48761;42.680;23.312;2023-06-22T02:26:57;16.42;;;10.52;;
62696;SDS011;48761;42.680;23.312;2023-06-22T02:29:24;16.92;;;9.70;;
62696;SDS011;48761;42.680;23.312;2023-06-22T02:31:50;13.27;;;10.50;;
62696;SDS011;48761;42.680;23.312;2023-06-22T02:34:16;14.15;;;10.43;;
62696;SDS011;48761;42.680;23.312;2023-06-22T02:36:43;13.10;;;10.20;;
62696;SDS011;48761;42.680;23.312;2023-06-22T02:39:10;14.68;;;10.07;;
62696;SDS011;48761;42.680;23.312;2023-06-22T02:41:38;14.23;;;9.95;;
62696;SDS011;48761;42.680;23.312;2023-06-22T02:44:05;15.65;;;9.90;;
62696;SDS011;48761;42.680;23.312;2023-06-22T02:46:32;13.43;;;9.88;;
62696;SDS011;48761;42.680;23.312;2023-06-22T02:48:58;13.88;;;10.00;;
62696;SDS011;48761;42.680;23.312;2023-06-22T02:51:24;15.70;;;9.25;;
62696;SDS011;48761;42.680;23.312;2023-06-22T02:53:50;12.40;;;9.15;;
62696;SDS011;48761;42.680;23.312;2023-06-22T02:56:18;15.05;;;10.13;;
62696;SDS011;48761;42.680;23.312;2023-06-22T02:58:45;15.25;;;9.75;;
62696;SDS011;48761;42.680;23.312;2023-06-22T03:01:14;15.90;;;9.57;;
62696;SDS011;48761;42.680;23.312;2023-06-22T03:03:40;15.10;;;9.38;;
62696;SDS011;48761;42.680;23.312;2023-06-22T03:06:06;12.25;;;9.00;;
62696;SDS011;48761;42.680;23.312;2023-06-22T03:08:33;13.35;;;9.57;;
62696;SDS011;48761;42.680;23.312;2023-06-22T03:10:59;12.73;;;9.70;;
62696;SDS011;48761;42.680;23.312;2023-06-22T03:13:25;14.88;;;10.30;;
62696;SDS011;48761;42.680;23.312;2023-06-22T03:15:52;14.00;;;9.60;;
62696;SDS011;48761;42.680;23.312;2023-06-22T03:18:20;15.00;;;10.70;;
62696;SDS011;48761;42.680;23.312;2023-06-22T03:20:47;11.82;;;9.35;;
62696;SDS011;48761;42.680;23.312;2023-06-22T03:23:14;19.13;;;9.68;;
62696;SDS011;48761;42.680;23.312;2023-06-22T03:25:41;15.80;;;9.90;;
62696;SDS011;48761;42.680;23.312;2023-06-22T03:28:08;17.65;;;11.32;;
62696;SDS011;48761;42.680;23.312;2023-06-22T03:30:34;16.13;;;10.80;;
62696;SDS011;48761;42.680;23.312;2023-06-22T03:33:01;14.75;;;11.25;;
62696;SDS011;48761;42.680;23.312;2023-06-22T03:35:29;27.92;;;14.82;;
62696;SDS011;48761;42.680;23.312;2023-06-22T03:37:56;20.77;;;14.52;;
62696;SDS011;48761;42.680;23.312;2023-06-22T03:40:22;27.15;;;18.30;;
62696;SDS011;48761;42.680;23.312;2023-06-22T03:42:48;24.08;;;14.43;;
62696;SDS011;48761;42.680;23.312;2023-06-22T03:45:14;19.40;;;13.65;;
62696;SDS011;48761;42.680;23.312;2023-06-22T03:47:41;18.00;;;12.82;;
62696;SDS011;48761;42.680;23.312;2023-06-22T03:50:07;19.17;;;11.77;;
62696;SDS011;48761;42.680;23.312;2023-06-22T03:52:33;16.50;;;11.90;;
62696;SDS011;48761;42.680;23.312;2023-06-22T03:54:59;18.95;;;11.80;;
62696;SDS011;48761;42.680;23.312;2023-06-22T03:57:29;18.58;;;12.55;;
62696;SDS011;48761;42.680;23.312;2023-06-22T03:59:59;16.42;;;11.68;;
62696;SDS011;48761;42.680;23.312;2023-06-22T04:02:35;19.85;;;11.75;;
62696;SDS011;48761;42.680;23.312;2023-06-22T04:05:02;20.33;;;12.15;;
62696;SDS011;48761;42.680;23.312;2023-06-22T04:07:36;16.10;;;11.90;;
62696;SDS011;48761;42.680;23.312;2023-06-22T04:10:03;18.80;;;12.43;;
62696;SDS011;48761;42.680;23.312;2023-06-22T04:12:30;17.52;;;11.60;;
62696;SDS011;48761;42.680;23.312;2023-06-22T04:14:56;16.15;;;10.82;;
62696;SDS011;48761;42.680;23.312;2023-06-22T04:17:22;15.82;;;11.48;;
62696;SDS011;48761;42.680;23.312;2023-06-22T04:19:51;16.85;;;11.98;;
62696;SDS011;48761;42.680;23.312;2023-06-22T04:22:23;16.85;;;13.20;;
62696;SDS011;48761;42.680;23.312;2023-06-22T04:24:49;23.25;;;12.02;;
62696;SDS011;48761;42.680;23.312;2023-06-22T04:27:16;16.50;;;11.52;;
62696;SDS011;48761;42.680;23.312;2023-06-22T04:29:45;16.45;;;12.02;;
62696;SDS011;48761;42.680;23.312;2023-06-22T04:32:17;15.50;;;11.85;;
62696;SDS011;48761;42.680;23.312;2023-06-22T04:34:43;17.75;;;11.07;;
62696;SDS011;48761;42.680;23.312;2023-06-22T04:37:09;16.73;;;12.02;;
62696;SDS011;48761;42.680;23.312;2023-06-22T04:39:35;17.90;;;11.35;;
62696;SDS011;48761;42.680;23.312;2023-06-22T04:42:01;16.00;;;11.75;;
62696;SDS011;48761;42.680;23.312;2023-06-22T04:44:27;19.38;;;14.25;;
62696;SDS011;48761;42.680;23.312;2023-06-22T04:46:54;22.08;;;15.10;;
62696;SDS011;48761;42.680;23.312;2023-06-22T04:49:23;20.23;;;11.70;;
62696;SDS011;48761;42.680;23.312;2023-06-22T04:51:49;15.90;;;11.48;;
62696;SDS011;48761;42.680;23.312;2023-06-22T04:54:15;16.55;;;11.35;;
62696;SDS011;48761;42.680;23.312;2023-06-22T04:56:41;14.27;;;11.10;;
62696;SDS011;48761;42.680;23.312;2023-06-22T04:59:07;17.67;;;11.52;;
62696;SDS011;48761;42.680;23.312;2023-06-22T05:01:32;19.42;;;12.57;;
62696;SDS011;48761;42.680;23.312;2023-06-22T05:03:58;18.30;;;12.98;;
62696;SDS011;48761;42.680;23.312;2023-06-22T05:06:24;18.17;;;11.45;;
62696;SDS011;48761;42.680;23.312;2023-06-22T05:08:52;21.35;;;12.25;;
62696;SDS011;48761;42.680;23.312;2023-06-22T05:11:19;26.02;;;13.07;;
62696;SDS011;48761;42.680;23.312;2023-06-22T05:13:45;17.33;;;11.63;;
62696;SDS011;48761;42.680;23.312;2023-06-22T05:16:11;17.48;;;11.48;;
62696;SDS011;48761;42.680;23.312;2023-06-22T05:18:37;16.48;;;11.15;;
62696;SDS011;48761;42.680;23.312;2023-06-22T05:21:03;15.82;;;10.90;;
62696;SDS011;48761;42.680;23.312;2023-06-22T05:23:28;23.42;;;11.27;;
62696;SDS011;48761;42.680;23.312;2023-06-22T05:25:54;12.52;;;9.60;;
62696;SDS011;48761;42.680;23.312;2023-06-22T05:28:20;13.13;;;9.90;;
62696;SDS011;48761;42.680;23.312;2023-06-22T05:30:46;15.05;;;9.90;;
62696;SDS011;48761;42.680;23.312;2023-06-22T05:33:12;15.70;;;10.63;;
62696;SDS011;48761;42.680;23.312;2023-06-22T05:35:38;13.27;;;10.10;;
62696;SDS011;48761;42.680;23.312;2023-06-22T05:38:04;17.40;;;10.68;;
62696;SDS011;48761;42.680;23.312;2023-06-22T05:40:30;12.68;;;10.50;;
62696;SDS011;48761;42.680;23.312;2023-06-22T05:42:57;19.23;;;13.00;;
62696;SDS011;48761;42.680;23.312;2023-06-22T05:45:22;18.88;;;12.75;;
62696;SDS011;48761;42.680;23.312;2023-06-22T05:47:48;18.80;;;13.52;;
62696;SDS011;48761;42.680;23.312;2023-06-22T05:50:14;17.23;;;13.25;;
62696;SDS011;48761;42.680;23.312;2023-06-22T05:52:40;17.00;;;13.75;;
62696;SDS011;48761;42.680;23.312;2023-06-22T05:55:07;18.85;;;14.25;;
62696;SDS011;48761;42.680;23.312;2023-06-22T05:57:33;18.83;;;13.52;;
62696;SDS011;48761;42.680;23.312;2023-06-22T05:59:59;18.48;;;14.07;;
62696;SDS011;48761;42.680;23.312;2023-06-22T06:02:25;23.33;;;13.80;;
62696;SDS011;48761;42.680;23.312;2023-06-22T06:04:51;18.02;;;13.85;;
62696;SDS011;48761;42.680;23.312;2023-06-22T06:07:17;19.65;;;14.15;;
62696;SDS011;48761;42.680;23.312;2023-06-22T06:09:42;21.17;;;14.27;;
62696;SDS011;48761;42.680;23.312;2023-06-22T06:12:08;20.50;;;14.35;;
62696;SDS011;48761;42.680;23.312;2023-06-22T06:14:35;18.33;;;15.25;;
62696;SDS011;48761;42.680;23.312;2023-06-22T06:17:01;19.55;;;15.68;;
62696;SDS011;48761;42.680;23.312;2023-06-22T06:19:26;21.27;;;14.05;;
62696;SDS011;48761;42.680;23.312;2023-06-22T06:21:52;21.65;;;13.40;;
62696;SDS011;48761;42.680;23.312;2023-06-22T06:24:18;16.65;;;13.10;;
62696;SDS011;48761;42.680;23.312;2023-06-22T06:26:44;14.98;;;12.15;;
62696;SDS011;48761;42.680;23.312;2023-06-22T06:29:10;20.90;;;13.85;;
62696;SDS011;48761;42.680;23.312;2023-06-22T06:31:36;18.00;;;11.88;;
62696;SDS011;48761;42.680;23.312;2023-06-22T06:34:02;21.05;;;14.40;;
62696;SDS011;48761;42.680;23.312;2023-06-22T06:36:28;16.58;;;12.40;;
62696;SDS011;48761;42.680;23.312;2023-06-22T06:38:54;19.85;;;13.90;;
62696;SDS011;48761;42.680;23.312;2023-06-22T06:41:20;17.67;;;13.13;;
62696;SDS011;48761;42.680;23.312;2023-06-22T06:43:46;23.02;;;13.23;;
62696;SDS011;48761;42.680;23.312;2023-06-22T06:46:12;17.63;;;13.00;;
62696;SDS011;48761;42.680;23.312;2023-06-22T06:48:38;18.50;;;13.93;;
62696;SDS011;48761;42.680;23.312;2023-06-22T06:51:04;16.98;;;13.40;;
62696;SDS011;48761;42.680;23.312;2023-06-22T06:53:30;21.17;;;14.88;;
62696;SDS011;48761;42.680;23.312;2023-06-22T06:55:56;16.48;;;13.32;;
62696;SDS011;48761;42.680;23.312;2023-06-22T06:58:23;18.30;;;13.52;;
62696;SDS011;48761;42.680;23.312;2023-06-22T07:00:49;18.05;;;13.35;;
62696;SDS011;48761;42.680;23.312;2023-06-22T07:03:15;22.17;;;12.95;;
62696;SDS011;48761;42.680;23.312;2023-06-22T07:05:41;21.05;;;12.65;;
62696;SDS011;48761;42.680;23.312;2023-06-22T07:08:07;16.83;;;13.02;;
62696;SDS011;48761;42.680;23.312;2023-06-22T07:10:33;23.20;;;12.80;;
62696;SDS011;48761;42.680;23.312;2023-06-22T07:12:59;16.23;;;11.93;;
62696;SDS011;48761;42.680;23.312;2023-06-22T07:15:25;16.27;;;12.32;;
62696;SDS011;48761;42.680;23.312;2023-06-22T07:17:51;18.35;;;12.38;;
62696;SDS011;48761;42.680;23.312;2023-06-22T07:20:17;17.20;;;13.25;;
62696;SDS011;48761;42.680;23.312;2023-06-22T07:22:44;17.80;;;12.20;;
62696;SDS011;48761;42.680;23.312;2023-06-22T07:25:10;20.83;;;12.68;;
62696;SDS011;48761;42.680;23.312;2023-06-22T07:27:37;20.00;;;12.60;;
62696;SDS011;48761;42.680;23.312;2023-06-22T07:30:04;20.42;;;11.98;;
62696;SDS011;48761;42.680;23.312;2023-06-22T07:32:31;18.35;;;11.60;;
62696;SDS011;48761;42.680;23.312;2023-06-22T07:34:58;14.93;;;11.57;;
62696;SDS011;48761;42.680;23.312;2023-06-22T07:37:24;16.00;;;10.68;;
62696;SDS011;48761;42.680;23.312;2023-06-22T07:39:50;15.45;;;11.07;;
62696;SDS011;48761;42.680;23.312;2023-06-22T07:42:15;13.98;;;10.68;;
62696;SDS011;48761;42.680;23.312;2023-06-22T07:44:41;15.40;;;11.30;;
62696;SDS011;48761;42.680;23.312;2023-06-22T07:47:07;17.30;;;10.68;;
62696;SDS011;48761;42.680;23.312;2023-06-22T07:49:33;16.48;;;10.98;;
62696;SDS011;48761;42.680;23.312;2023-06-22T07:51:59;17.33;;;11.07;;
62696;SDS011;48761;42.680;23.312;2023-06-22T07:54:25;19.85;;;12.05;;
62696;SDS011;48761;42.680;23.312;2023-06-22T07:56:51;16.00;;;11.10;;
62696;SDS011;48761;42.680;23.312;2023-06-22T07:59:17;16.98;;;12.00;;
62696;SDS011;48761;42.680;23.312;2023-06-22T08:01:43;21.65;;;11.07;;
62696;SDS011;48761;42.680;23.312;2023-06-22T08:04:09;16.70;;;11.88;;
62696;SDS011;48761;42.680;23.312;2023-06-22T08:06:35;17.60;;;12.05;;
62696;SDS011;48761;42.680;23.312;2023-06-22T08:09:01;17.55;;;11.18;;
62696;SDS011;48761;42.680;23.312;2023-06-22T08:11:27;19.27;;;11.50;;
62696;SDS011;48761;42.680;23.312;2023-06-22T08:13:53;18.00;;;12.05;;
62696;SDS011;48761;42.680;23.312;2023-06-22T08:16:19;18.02;;;12.13;;
62696;SDS011;48761;42.680;23.312;2023-06-22T08:18:45;16.80;;;11.27;;
62696;SDS011;48761;42.680;23.312;2023-06-22T08:21:11;16.85;;;11.40;;
62696;SDS011;48761;42.680;23.312;2023-06-22T08:23:37;14.52;;;9.27;;
62696;SDS011;48761;42.680;23.312;2023-06-22T08:26:03;17.83;;;10.18;;
62696;SDS011;48761;42.680;23.312;2023-06-22T08:28:29;17.20;;;10.77;;
62696;SDS011;48761;42.680;23.312;2023-06-22T08:30:54;18.45;;;11.07;;
62696;SDS011;48761;42.680;23.312;2023-06-22T08:33:20;14.38;;;10.45;;
62696;SDS011;48761;42.680;23.312;2023-06-22T08:35:46;14.10;;;10.00;;
62696;SDS011;48761;42.680;23.312;2023-06-22T08:38:12;17.50;;;10.68;;
62696;SDS011;48761;42.680;23.312;2023-06-22T08:40:38;14.18;;;10.48;;
62696;SDS011;48761;42.680;23.312;2023-06-22T08:43:04;14.48;;;10.00;;
62696;SDS011;48761;42.680;23.312;2023-06-22T08:45:30;13.70;;;9.30;;
62696;SDS011;48761;42.680;23.312;2023-06-22T08:47:56;12.93;;;9.18;;
62696;SDS011;48761;42.680;23.312;2023-06-22T08:50:22;20.67;;;14.57;;
62696;SDS011;48761;42.680;23.312;2023-06-22T08:52:48;13.55;;;10.27;;
62696;SDS011;48761;42.680;23.312;2023-06-22T08:55:14;10.00;;;8.55;;
62696;SDS011;48761;42.680;23.312;2023-06-22T08:57:40;12.00;;;9.55;;
62696;SDS011;48761;42.680;23.312;2023-06-22T09:00:07;15.48;;;11.73;;
62696;SDS011;48761;42.680;23.312;2023-06-22T09:02:34;10.38;;;8.95;;
62696;SDS011;48761;42.680;23.312;2023-06-22T09:05:02;15.15;;;8.68;;
62696;SDS011;48761;42.680;23.312;2023-06-22T09:07:29;10.13;;;9.13;;
62696;SDS011;48761;42.680;23.312;2023-06-22T09:09:56;11.18;;;9.05;;
62696;SDS011;48761;42.680;23.312;2023-06-22T09:12:22;11.25;;;8.73;;
62696;SDS011;48761;42.680;23.312;2023-06-22T09:14:48;12.23;;;9.65;;
62696;SDS011;48761;42.680;23.312;2023-06-22T09:17:14;11.32;;;9.65;;
62696;SDS011;48761;42.680;23.312;2023-06-22T09:19:40;10.23;;;9.10;;
62696;SDS011;48761;42.680;23.312;2023-06-22T09:22:06;11.00;;;8.18;;
62696;SDS011;48761;42.680;23.312;2023-06-22T09:24:32;10.70;;;7.78;;
62696;SDS011;48761;42.680;23.312;2023-06-22T09:26:58;12.38;;;8.35;;
62696;SDS011;48761;42.680;23.312;2023-06-22T09:29:24;13.65;;;9.20;;
62696;SDS011;48761;42.680;23.312;2023-06-22T09:31:50;11.90;;;9.10;;
62696;SDS011;48761;42.680;23.312;2023-06-22T09:34:16;14.43;;;10.75;;
62696;SDS011;48761;42.680;23.312;2023-06-22T09:36:42;14.57;;;8.32;;
62696;SDS011;48761;42.680;23.312;2023-06-22T09:39:08;9.82;;;8.82;;
62696;SDS011;48761;42.680;23.312;2023-06-22T09:41:34;10.55;;;8.63;;
62696;SDS011;48761;42.680;23.312;2023-06-22T09:44:00;12.68;;;9.38;;
62696;SDS011;48761;42.680;23.312;2023-06-22T09:46:26;11.73;;;9.95;;
62696;SDS011;48761;42.680;23.312;2023-06-22T09:48:52;10.40;;;8.80;;
62696;SDS011;48761;42.680;23.312;2023-06-22T09:51:18;12.63;;;10.40;;
62696;SDS011;48761;42.680;23.312;2023-06-22T09:53:44;12.32;;;9.43;;
62696;SDS011;48761;42.680;23.312;2023-06-22T09:56:10;11.75;;;8.65;;
62696;SDS011;48761;42.680;23.312;2023-06-22T09:58:36;10.70;;;9.48;;
62696;SDS011;48761;42.680;23.312;2023-06-22T10:01:02;12.70;;;9.70;;
62696;SDS011;48761;42.680;23.312;2023-06-22T10:03:28;11.40;;;9.30;;
62696;SDS011;48761;42.680;23.312;2023-06-22T10:05:54;12.10;;;9.13;;
62696;SDS011;48761;42.680;23.312;2023-06-22T10:08:20;11.75;;;9.65;;
62696;SDS011;48761;42.680;23.312;2023-06-22T10:10:46;12.60;;;9.60;;
62696;SDS011;48761;42.680;23.312;2023-06-22T10:13:11;13.05;;;9.40;;
62696;SDS011;48761;42.680;23.312;2023-06-22T10:15:38;14.75;;;9.40;;
62696;SDS011;48761;42.680;23.312;2023-06-22T10:18:04;13.77;;;8.95;;
62696;SDS011;48761;42.680;23.312;2023-06-22T10:20:30;11.20;;;8.77;;
62696;SDS011;48761;42.680;23.312;2023-06-22T10:22:56;11.00;;;9.48;;
62696;SDS011;48761;42.680;23.312;2023-06-22T10:25:22;11.15;;;9.40;;
62696;SDS011;48761;42.680;23.312;2023-06-22T10:27:48;12.45;;;9.75;;
62696;SDS011;48761;42.680;23.312;2023-06-22T10:30:14;13.32;;;9.95;;
62696;SDS011;48761;42.680;23.312;2023-06-22T10:32:41;15.27;;;10.75;;
62696;SDS011;48761;42.680;23.312;2023-06-22T10:35:08;12.48;;;9.27;;
62696;SDS011;48761;42.680;23.312;2023-06-22T10:37:35;17.13;;;10.80;;
62696;SDS011;48761;42.680;23.312;2023-06-22T10:40:01;14.52;;;9.98;;
62696;SDS011;48761;42.680;23.312;2023-06-22T10:42:27;12.05;;;10.00;;
62696;SDS011;48761;42.680;23.312;2023-06-22T10:44:53;10.90;;;9.52;;
62696;SDS011;48761;42.680;23.312;2023-06-22T10:47:19;11.68;;;9.95;;
62696;SDS011;48761;42.680;23.312;2023-06-22T10:49:45;13.15;;;9.95;;
62696;SDS011;48761;42.680;23.312;2023-06-22T10:52:11;12.63;;;10.10;;
62696;SDS011;48761;42.680;23.312;2023-06-22T10:54:37;14.30;;;10.07;;
62696;SDS011;48761;42.680;23.312;2023-06-22T10:57:04;12.48;;;10.32;;
62696;SDS011;48761;42.680;23.312;2023-06-22T10:59:30;14.52;;;10.50;;
62696;SDS011;48761;42.680;23.312;2023-06-22T11:01:56;12.30;;;10.32;;
62696;SDS011;48761;42.680;23.312;2023-06-22T11:04:22;15.60;;;10.45;;
62696;SDS011;48761;42.680;23.312;2023-06-22T11:06:48;13.15;;;10.55;;
62696;SDS011;48761;42.680;23.312;2023-06-22T11:09:15;12.77;;;9.95;;
62696;SDS011;48761;42.680;23.312;2023-06-22T11:11:41;12.00;;;9.68;;
62696;SDS011;48761;42.680;23.312;2023-06-22T11:14:07;14.73;;;9.55;;
62696;SDS011;48761;42.680;23.312;2023-06-22T11:19:07;12.05;;;9.38;;
62696;SDS011;48761;42.680;23.312;2023-06-22T11:21:34;11.52;;;9.60;;
62696;SDS011;48761;42.680;23.312;2023-06-22T11:24:00;12.63;;;9.07;;
62696;SDS011;48761;42.680;23.312;2023-06-22T11:26:26;12.60;;;8.82;;
62696;SDS011;48761;42.680;23.312;2023-06-22T11:28:52;12.68;;;8.70;;
62696;SDS011;48761;42.680;23.312;2023-06-22T11:31:18;12.35;;;9.18;;
62696;SDS011;48761;42.680;23.312;2023-06-22T11:33:43;10.70;;;8.88;;
62696;SDS011;48761;42.680;23.312;2023-06-22T11:36:09;13.82;;;10.13;;
62696;SDS011;48761;42.680;23.312;2023-06-22T11:38:36;10.75;;;8.90;;
62696;SDS011;48761;42.680;23.312;2023-06-22T11:41:02;11.63;;;9.95;;
62696;SDS011;48761;42.680;23.312;2023-06-22T11:43:28;10.27;;;8.98;;
62696;SDS011;48761;42.680;23.312;2023-06-22T11:45:54;13.45;;;9.55;;
62696;SDS011;48761;42.680;23.312;2023-06-22T11:48:19;11.38;;;9.40;;
62696;SDS011;48761;42.680;23.312;2023-06-22T11:50:45;9.45;;;7.88;;
62696;SDS011;48761;42.680;23.312;2023-06-22T11:53:11;16.35;;;8.43;;
62696;SDS011;48761;42.680;23.312;2023-06-22T11:55:37;9.93;;;8.07;;
62696;SDS011;48761;42.680;23.312;2023-06-22T11:58:03;11.40;;;8.68;;
62696;SDS011;48761;42.680;23.312;2023-06-22T12:00:29;10.95;;;8.73;;
62696;SDS011;48761;42.680;23.312;2023-06-22T12:02:55;10.77;;;8.38;;
62696;SDS011;48761;42.680;23.312;2023-06-22T12:05:21;12.18;;;8.65;;
62696;SDS011;48761;42.680;23.312;2023-06-22T12:07:48;11.68;;;9.10;;
62696;SDS011;48761;42.680;23.312;2023-06-22T12:10:14;13.43;;;9.38;;
62696;SDS011;48761;42.680;23.312;2023-06-22T12:12:41;12.45;;;9.30;;
62696;SDS011;48761;42.680;23.312;2023-06-22T12:15:08;13.30;;;9.35;;
62696;SDS011;48761;42.680;23.312;2023-06-22T12:17:35;11.73;;;9.32;;
62696;SDS011;48761;42.680;23.312;2023-06-22T12:20:02;14.90;;;9.60;;
62696;SDS011;48761;42.680;23.312;2023-06-22T12:22:28;15.18;;;10.10;;
62696;SDS011;48761;42.680;23.312;2023-06-22T12:24:54;13.88;;;10.90;;
62696;SDS011;48761;42.680;23.312;2023-06-22T12:27:20;13.75;;;11.25;;
62696;SDS011;48761;42.680;23.312;2023-06-22T12:29:46;17.85;;;11.48;;
62696;SDS011;48761;42.680;23.312;2023-06-22T12:32:12;18.48;;;11.02;;
62696;SDS011;48761;42.680;23.312;2023-06-22T12:34:38;13.30;;;10.05;;
62696;SDS011;48761;42.680;23.312;2023-06-22T12:37:05;12.23;;;9.60;;
62696;SDS011;48761;42.680;23.312;2023-06-22T12:39:31;15.50;;;10.00;;
62696;SDS011;48761;42.680;23.312;2023-06-22T12:41:57;14.95;;;8.65;;
62696;SDS011;48761;42.680;23.312;2023-06-22T12:44:23;21.80;;;11.50;;
62696;SDS011;48761;42.680;23.312;2023-06-22T12:46:49;14.52;;;9.77;;
62696;SDS011;48761;42.680;23.312;2023-06-22T12:49:15;14.27;;;10.07;;
62696;SDS011;48761;42.680;23.312;2023-06-22T12:51:47;13.73;;;9.32;;
62696;SDS011;48761;42.680;23.312;2023-06-22T12:54:13;14.35;;;9.20;;
62696;SDS011;48761;42.680;23.312;2023-06-22T12:56:39;15.05;;;8.38;;
62696;SDS011;48761;42.680;23.312;2023-06-22T12:59:05;12.70;;;8.90;;
62696;SDS011;48761;42.680;23.312;2023-06-22T13:01:31;14.50;;;8.15;;
62696;SDS011;48761;42.680;23.312;2023-06-22T13:03:58;13.52;;;8.30;;
62696;SDS011;48761;42.680;23.312;2023-06-22T13:06:24;13.02;;;8.13;;
62696;SDS011;48761;42.680;23.312;2023-06-22T13:08:50;14.13;;;7.70;;
62696;SDS011;48761;42.680;23.312;2023-06-22T13:11:16;16.17;;;8.80;;
62696;SDS011;48761;42.680;23.312;2023-06-22T13:13:43;12.88;;;8.45;;
62696;SDS011;48761;42.680;23.312;2023-06-22T13:16:10;15.88;;;9.10;;
62696;SDS011;48761;42.680;23.312;2023-06-22T13:18:36;13.80;;;8.77;;
62696;SDS011;48761;42.680;23.312;2023-06-22T13:21:02;13.18;;;8.65;;
62696;SDS011;48761;42.680;23.312;2023-06-22T13:23:29;21.35;;;10.48;;
62696;SDS011;48761;42.680;23.312;2023-06-22T13:25:57;15.88;;;10.70;;
62696;SDS011;48761;42.680;23.312;2023-06-22T13:28:23;15.52;;;10.10;;
62696;SDS011;48761;42.680;23.312;2023-06-22T13:30:50;18.05;;;9.98;;
62696;SDS011;48761;42.680;23.312;2023-06-22T13:33:16;14.30;;;10.27;;
62696;SDS011;48761;42.680;23.312;2023-06-22T13:35:42;14.38;;;9.50;;
62696;SDS011;48761;42.680;23.312;2023-06-22T13:38:11;15.02;;;9.85;;
62696;SDS011;48761;42.680;23.312;2023-06-22T13:40:37;14.73;;;10.80;;
62696;SDS011;48761;42.680;23.312;2023-06-22T13:43:06;13.77;;;9.52;;
62696;SDS011;48761;42.680;23.312;2023-06-22T13:45:32;15.68;;;10.43;;
62696;SDS011;48761;42.680;23.312;2023-06-22T13:47:58;14.88;;;9.95;;
62696;SDS011;48761;42.680;23.312;2023-06-22T13:50:24;14.43;;;11.02;;
62696;SDS011;48761;42.680;23.312;2023-06-22T13:52:50;18.52;;;11.15;;
62696;SDS011;48761;42.680;23.312;2023-06-22T13:55:16;20.88;;;10.85;;
62696;SDS011;48761;42.680;23.312;2023-06-22T13:57:42;18.65;;;10.30;;
62696;SDS011;48761;42.680;23.312;2023-06-22T14:00:08;15.20;;;10.23;;
62696;SDS011;48761;42.680;23.312;2023-06-22T14:02:35;14.93;;;10.50;;
62696;SDS011;48761;42.680;23.312;2023-06-22T14:05:00;16.10;;;10.88;;
62696;SDS011;48761;42.680;23.312;2023-06-22T14:07:26;22.75;;;10.57;;
62696;SDS011;48761;42.680;23.312;2023-06-22T14:09:52;18.02;;;10.18;;
62696;SDS011;48761;42.680;23.312;2023-06-22T14:12:18;17.42;;;11.20;;
62696;SDS011;48761;42.680;23.312;2023-06-22T14:14:44;17.95;;;11.65;;
62696;SDS011;48761;42.680;23.312;2023-06-22T14:17:10;22.58;;;11.38;;
62696;SDS011;48761;42.680;23.312;2023-06-22T14:19:36;19.48;;;11.43;;
62696;SDS011;48761;42.680;23.312;2023-06-22T14:22:02;16.25;;;10.85;;